Wheeler, Texas
Current Conditions -  °F | °C
As of 3:15 PM on Tuesday 27 Jan 2015 (Local Time) from KHHF Reporting Station
Clear Clear  
Wind Chill: 76°   Ceiling: Unl
Heat Index: 76°   Visibility: 10mi
Dew Point: 30°   Wind: 12mph
Humidity: 18%   Direction: 220°SW
Pressure: 30.09"   Gusts: NA
Location:  35.45°N, 100.27°W
Report Text: KHHF 272115Z AUTO 22010KT 10SM CLR 25/M01 A3009 RMK AO2 T02461010
Loading
Personal Weather Stations






























Interactive Weather Map New forecast layout! Learn more

10-Day Weather Forecast

Advertisements
Track Severe Weather on mobile